createdAt,value
2018-04-01T00:00:32.349Z,100447.09
2018-04-01T00:02:59.313Z,100447.29
2018-04-01T00:05:26.310Z,100444.02
2018-04-01T00:07:53.252Z,100448.50
2018-04-01T00:10:20.184Z,100452.95
2018-04-01T00:12:47.129Z,100452.67
2018-04-01T00:15:14.049Z,100458.17
2018-04-01T00:17:41.005Z,100457.63
2018-04-01T00:20:07.914Z,100459.70
2018-04-01T00:22:34.889Z,100458.68
2018-04-01T00:25:01.804Z,100457.54
2018-04-01T00:27:28.801Z,100452.84
2018-04-01T00:29:55.723Z,100456.69
2018-04-01T00:32:23.609Z,100452.52
2018-04-01T00:34:51.521Z,100451.39
2018-04-01T00:37:18.525Z,100449.23
2018-04-01T00:39:45.441Z,100444.95
2018-04-01T00:42:12.355Z,100448.62
2018-04-01T00:44:39.353Z,100440.23
2018-04-01T00:47:06.305Z,100441.03
2018-04-01T00:49:33.273Z,100448.41
2018-04-01T00:52:00.226Z,100450.39
2018-04-01T00:54:27.133Z,100446.16
2018-04-01T00:56:54.041Z,100448.81
2018-04-01T00:59:20.990Z,100447.03
2018-04-01T01:01:47.900Z,100441.25
2018-04-01T01:04:14.868Z,100439.11
2018-04-01T01:06:41.790Z,100443.34
2018-04-01T01:09:08.733Z,100443.25
2018-04-01T01:11:35.651Z,100441.02
2018-04-01T01:14:02.597Z,100441.42
2018-04-01T01:16:29.505Z,100441.94
2018-04-01T01:18:56.414Z,100438.76
2018-04-01T01:21:23.358Z,100430.70
2018-04-01T01:23:50.273Z,100435.41
2018-04-01T01:26:17.216Z,100434.63
2018-04-01T01:28:44.162Z,100434.64
2018-04-01T01:31:11.214Z,100429.06
2018-04-01T01:33:38.124Z,100434.53
2018-04-01T01:36:05.060Z,100434.91
2018-04-01T01:38:31.976Z,100437.48
2018-04-01T01:40:58.921Z,100434.69
2018-04-01T01:43:25.837Z,100434.88
2018-04-01T01:45:52.779Z,100414.34
2018-04-01T01:48:19.691Z,100436.55
2018-04-01T01:50:46.633Z,100435.28
2018-04-01T01:53:13.540Z,100441.19
2018-04-01T01:55:40.663Z,100436.81
2018-04-01T01:58:07.572Z,100427.20
2018-04-01T02:00:34.485Z,100428.90
2018-04-01T02:03:01.430Z,100431.91
2018-04-01T02:05:28.353Z,100435.77
2018-04-01T02:07:56.273Z,100424.98
2018-04-01T02:10:23.185Z,100433.05
2018-04-01T02:12:51.089Z,100430.77
2018-04-01T02:15:18.002Z,100440.19
2018-04-01T02:17:44.949Z,100434.21
2018-04-01T02:20:11.945Z,100432.92
2018-04-01T02:22:38.994Z,100439.97
2018-04-01T02:25:05.910Z,100442.75
2018-04-01T02:27:32.868Z,100432.55
2018-04-01T02:29:59.781Z,100440.51
2018-04-01T02:32:26.725Z,100439.00
2018-04-01T02:34:53.648Z,100441.42
2018-04-01T02:37:20.556Z,100435.94
2018-04-01T02:39:47.501Z,100438.03
2018-04-01T02:42:14.413Z,100433.94
2018-04-01T02:44:41.362Z,100432.36
2018-04-01T02:47:08.277Z,100431.48
2018-04-01T02:49:35.221Z,100426.61
2018-04-01T02:52:02.130Z,100428.84
2018-04-01T02:54:29.073Z,100432.66
2018-04-01T02:56:55.979Z,100438.05
2018-04-01T02:59:22.933Z,100438.21
2018-04-01T03:01:49.896Z,100438.56
2018-04-01T03:04:16.841Z,100446.19
2018-04-01T03:06:43.758Z,100445.41
2018-04-01T03:09:10.697Z,100444.14
2018-04-01T03:11:37.614Z,100440.59
2018-04-01T03:14:04.533Z,100441.89
2018-04-01T03:16:31.477Z,100443.98
2018-04-01T03:18:58.408Z,100445.33
2018-04-01T03:21:25.356Z,100447.88
2018-04-01T03:23:52.272Z,100445.30
2018-04-01T03:26:19.213Z,100453.59
2018-04-01T03:28:46.183Z,100455.66
2018-04-01T03:31:13.128Z,100453.72
2018-04-01T03:33:40.044Z,100446.09
2018-04-01T03:36:06.985Z,100450.34
2018-04-01T03:38:33.906Z,100451.65
2018-04-01T03:41:01.773Z,100451.67
2018-04-01T03:43:28.692Z,100452.27
2018-04-01T03:45:55.636Z,100451.00
2018-04-01T03:48:22.553Z,100458.61
2018-04-01T03:50:50.411Z,100459.39
2018-04-01T03:53:17.329Z,100459.44
2018-04-01T03:55:44.296Z,100465.33
2018-04-01T03:58:11.205Z,100461.53
2018-04-01T04:00:38.129Z,100460.28
2018-04-01T04:03:05.076Z,100455.22
2018-04-01T04:05:32.961Z,100463.25
2018-04-01T04:07:59.912Z,100458.25
2018-04-01T04:10:26.816Z,100450.31
2018-04-01T04:12:54.664Z,100462.50
2018-04-01T04:15:21.568Z,100462.52
2018-04-01T04:17:48.510Z,100458.53
2018-04-01T04:20:15.425Z,100462.25
2018-04-01T04:22:42.369Z,100465.88
2018-04-01T04:25:09.291Z,100465.70
2018-04-01T04:27:36.241Z,100468.66
2018-04-01T04:30:04.155Z,100470.44
2018-04-01T04:32:31.100Z,100470.16
2018-04-01T04:34:58.004Z,100479.69
2018-04-01T04:37:24.913Z,100479.23
2018-04-01T04:39:51.862Z,100474.65
2018-04-01T04:42:18.764Z,100481.64
2018-04-01T04:44:45.701Z,100484.23
2018-04-01T04:47:12.613Z,100486.23
2018-04-01T04:49:39.552Z,100483.35
2018-04-01T04:52:06.470Z,100483.85
2018-04-01T04:54:33.432Z,100488.31
2018-04-01T04:57:00.346Z,100482.70
2018-04-01T04:59:27.304Z,100479.74
2018-04-01T05:01:54.212Z,100477.95
2018-04-01T05:04:22.018Z,100484.98
2018-04-01T05:06:48.957Z,100486.09
2018-04-01T05:09:15.859Z,100489.55
2018-04-01T05:11:42.799Z,100486.21
2018-04-01T05:14:09.715Z,100483.70
2018-04-01T05:16:36.653Z,100484.72
2018-04-01T05:19:03.552Z,100486.80
2018-04-01T05:21:30.486Z,100487.45
2018-04-01T05:23:57.392Z,100491.80
2018-04-01T05:26:24.345Z,100490.56
2018-04-01T05:28:51.267Z,100485.42
2018-04-01T05:31:18.226Z,100494.05
2018-04-01T05:33:45.137Z,100498.77
2018-04-01T05:36:12.087Z,100488.92
2018-04-01T05:38:38.993Z,100493.55
2018-04-01T05:41:05.967Z,100495.05
2018-04-01T05:43:32.919Z,100500.77
2018-04-01T05:45:59.849Z,100492.27
2018-04-01T05:48:27.751Z,100499.44
2018-04-01T05:50:54.661Z,100503.68
2018-04-01T05:53:22.510Z,100496.47
2018-04-01T05:55:49.422Z,100506.27
2018-04-01T05:58:16.363Z,100508.22
2018-04-01T06:00:43.281Z,100514.66
2018-04-01T06:03:10.225Z,100512.72
2018-04-01T06:05:37.138Z,100521.73
2018-04-01T06:08:04.098Z,100515.48
2018-04-01T06:10:31.949Z,100518.09
2018-04-01T06:12:58.897Z,100519.41
2018-04-01T06:15:25.821Z,100523.41
2018-04-01T06:17:52.804Z,100527.73
2018-04-01T06:20:20.657Z,100520.20
2018-04-01T06:22:47.566Z,100522.45
2018-04-01T06:25:14.538Z,100527.14
2018-04-01T06:27:41.458Z,100527.17
2018-04-01T06:30:08.411Z,100526.66
2018-04-01T06:32:35.326Z,100529.97
2018-04-01T06:35:02.271Z,100531.27
2018-04-01T06:37:29.189Z,100534.44
2018-04-01T06:39:56.185Z,100535.05
2018-04-01T06:42:23.979Z,100534.66
2018-04-01T06:44:51.882Z,100542.25
2018-04-01T06:47:18.785Z,100552.14
2018-04-01T06:49:45.720Z,100551.67
2018-04-01T06:52:12.620Z,100550.02
2018-04-01T06:54:39.569Z,100552.70
2018-04-01T06:57:06.477Z,100553.70
2018-04-01T06:59:33.433Z,100563.28
2018-04-01T07:02:00.343Z,100562.73
2018-04-01T07:04:27.245Z,100556.98
2018-04-01T07:06:54.185Z,100566.19
2018-04-01T07:09:21.089Z,100571.69
2018-04-01T07:11:48.040Z,100577.95
2018-04-01T07:14:14.949Z,100570.03
2018-04-01T07:16:41.893Z,100580.39
2018-04-01T07:19:08.807Z,100573.98
2018-04-01T07:21:36.758Z,100583.66
2018-04-01T07:24:03.666Z,100582.33
2018-04-01T07:26:30.604Z,100582.91
2018-04-01T07:28:57.514Z,100583.35
2018-04-01T07:31:24.449Z,100586.56
2018-04-01T07:33:52.273Z,100581.95
2018-04-01T07:36:19.245Z,100583.50
2018-04-01T07:38:46.125Z,100582.51
2018-04-01T07:41:13.065Z,100583.02
2018-04-01T07:43:39.977Z,100588.53
2018-04-01T07:46:06.921Z,100592.00
2018-04-01T07:48:34.768Z,100586.35
2018-04-01T07:51:01.744Z,100591.76
2018-04-01T07:53:29.672Z,100597.81
2018-04-01T07:55:56.589Z,100593.58
2018-04-01T07:58:23.529Z,100600.30
2018-04-01T08:00:50.440Z,100594.62
2018-04-01T08:03:17.393Z,100597.86
2018-04-01T08:05:45.331Z,100604.09
2018-04-01T08:08:12.278Z,100604.73
2018-04-01T08:10:39.187Z,100614.62
2018-04-01T08:13:09.474Z,100607.14
2018-04-01T08:15:37.308Z,100609.58
2018-04-01T08:18:04.250Z,100609.26
2018-04-01T08:20:32.081Z,100612.66
2018-04-01T08:23:03.883Z,100615.12
2018-04-01T08:25:30.796Z,100613.94
2018-04-01T08:27:57.729Z,100620.09
2018-04-01T08:30:24.649Z,100620.10
2018-04-01T08:32:51.681Z,100620.88
2018-04-01T08:35:18.585Z,100625.18
2018-04-01T08:37:45.489Z,100632.48
2018-04-01T08:40:12.524Z,100628.30
2018-04-01T08:42:39.415Z,100631.59
2018-04-01T08:45:06.357Z,100628.95
2018-04-01T08:47:33.280Z,100626.06
2018-04-01T08:50:00.218Z,100630.06
2018-04-01T08:52:27.130Z,100629.95
2018-04-01T08:54:55.001Z,100631.41
2018-04-01T08:57:21.926Z,100632.05
2018-04-01T08:59:48.867Z,100635.52
2018-04-01T09:02:15.774Z,100645.36
2018-04-01T09:04:43.613Z,100647.02
2018-04-01T09:07:10.529Z,100654.56
2018-04-01T09:09:37.477Z,100643.25
2018-04-01T09:12:04.416Z,100647.94
2018-04-01T09:14:32.335Z,100654.15
2018-04-01T09:16:59.245Z,100650.43
2018-04-01T09:19:26.165Z,100652.47
2018-04-01T09:21:53.106Z,100649.32
2018-04-01T09:24:20.934Z,100655.24
2018-04-01T09:26:47.983Z,100650.16
2018-04-01T09:29:15.882Z,100647.55
2018-04-01T09:31:42.823Z,100651.93
2018-04-01T09:34:09.741Z,100661.88
2018-04-01T09:36:36.693Z,100660.52
2018-04-01T09:39:03.627Z,100663.52
2018-04-01T09:41:31.561Z,100662.71
2018-04-01T09:43:59.383Z,100661.22
2018-04-01T09:46:26.331Z,100665.38
2018-04-01T09:48:53.255Z,100666.51
2018-04-01T09:51:21.245Z,100673.72
2018-04-01T09:53:48.137Z,100669.98
2018-04-01T09:56:16.137Z,100674.69
2018-04-01T09:58:44.044Z,100669.94
2018-04-01T10:01:14.459Z,100674.06
2018-04-01T10:03:42.893Z,100678.28
2018-04-01T10:06:10.358Z,100678.41
2018-04-01T10:08:38.836Z,100688.45
2018-04-01T10:11:06.293Z,100689.52
2018-04-01T10:13:34.792Z,100689.20
2018-04-01T10:16:02.254Z,100692.19
2018-04-01T10:18:31.274Z,100693.99
2018-04-01T10:20:58.760Z,100693.63
2018-04-01T10:23:26.308Z,100697.91
2018-04-01T10:25:53.826Z,100700.86
2018-04-01T10:28:23.326Z,100701.37
2018-04-01T10:30:51.742Z,100708.50
2018-04-01T10:33:19.196Z,100703.14
2018-04-01T10:35:47.633Z,100709.45
2018-04-01T10:38:15.128Z,100702.79
2018-04-01T10:40:42.626Z,100698.14
2018-04-01T10:43:11.084Z,100701.67
2018-04-01T10:45:38.569Z,100697.38
2018-04-01T10:48:06.021Z,100696.98
2018-04-01T10:50:34.417Z,100698.95
2018-04-01T10:53:01.879Z,100697.19
2018-04-01T10:55:28.890Z,100700.09
2018-04-01T10:57:55.821Z,100704.91
2018-04-01T11:00:22.758Z,100704.23
2018-04-01T11:02:49.671Z,100709.25
2018-04-01T11:05:17.548Z,100703.98
2018-04-01T11:07:44.472Z,100706.16
2018-04-01T11:10:11.394Z,100713.01
2018-04-01T11:12:38.340Z,100717.17
2018-04-01T11:15:06.199Z,100712.45
2018-04-01T11:17:34.185Z,100715.06
2018-04-01T11:20:01.101Z,100710.08
2018-04-01T11:22:28.976Z,100710.56
2018-04-01T11:24:55.938Z,100707.75
2018-04-01T11:27:22.915Z,100714.45
2018-04-01T11:29:49.844Z,100714.92
2018-04-01T11:32:17.773Z,100709.33
2018-04-01T11:34:44.693Z,100719.15
2018-04-01T11:37:11.680Z,100719.09
2018-04-01T11:39:38.595Z,100716.11
2018-04-01T11:42:06.475Z,100726.94
2018-04-01T11:44:33.394Z,100736.38
2018-04-01T11:47:00.298Z,100730.77
2018-04-01T11:49:27.250Z,100734.48
2018-04-01T11:51:56.061Z,100728.52
2018-04-01T11:54:23.004Z,100719.56
2018-04-01T11:56:49.964Z,100731.24
2018-04-01T11:59:16.893Z,100730.81
2018-04-01T12:01:44.761Z,100735.34
2018-04-01T12:04:16.413Z,100725.69
2018-04-01T12:06:43.337Z,100730.52
2018-04-01T12:09:10.293Z,100725.14
2018-04-01T12:11:37.205Z,100723.67
2018-04-01T12:14:05.151Z,100717.12
2018-04-01T12:16:32.066Z,100725.93
2018-04-01T12:18:59.003Z,100718.58
2018-04-01T12:21:25.955Z,100720.73
2018-04-01T12:23:52.881Z,100718.87
2018-04-01T12:26:19.848Z,100714.25
2018-04-01T12:28:47.673Z,100714.98
2018-04-01T12:31:14.625Z,100720.95
2018-04-01T12:33:41.544Z,100718.91
2018-04-01T12:36:08.486Z,100710.94
2018-04-01T12:38:41.693Z,100718.33
2018-04-01T12:41:08.641Z,100712.34
2018-04-01T12:43:35.576Z,100716.30
2018-04-01T12:46:05.602Z,100707.06
2018-04-01T12:48:32.663Z,100712.86
2018-04-01T12:50:59.617Z,100696.49
2018-04-01T12:53:26.553Z,100707.72
2018-04-01T12:55:53.480Z,100702.22
2018-04-01T12:58:20.474Z,100706.35
2018-04-01T13:00:47.403Z,100708.08
2018-04-01T13:03:14.729Z,100713.68
2018-04-01T13:05:41.916Z,100712.03
2018-04-01T13:08:09.810Z,100714.23
2018-04-01T13:10:37.756Z,100707.20
2018-04-01T13:13:11.883Z,100713.86
2018-04-01T13:15:39.313Z,100713.05
2018-04-01T13:18:09.193Z,100718.05
2018-04-01T13:20:36.146Z,100717.36
2018-04-01T13:23:03.195Z,100711.47
2018-04-01T13:25:30.133Z,100715.50
2018-04-01T13:27:57.158Z,100714.74
2018-04-01T13:30:24.103Z,100710.19
2018-04-01T13:32:52.023Z,100717.55
2018-04-01T13:35:19.070Z,100716.17
2018-04-01T13:37:50.778Z,100716.16
2018-04-01T13:40:17.793Z,100707.69
2018-04-01T13:42:44.714Z,100704.01
2018-04-01T13:45:11.678Z,100696.00
2018-04-01T13:47:39.590Z,100690.38
2018-04-01T13:50:06.567Z,100696.23
2018-04-01T13:52:33.529Z,100698.36
2018-04-01T13:55:00.553Z,100688.59
2018-04-01T13:57:27.470Z,100694.87
2018-04-01T13:59:54.473Z,100697.57
2018-04-01T14:02:23.453Z,100689.76
2018-04-01T14:04:50.417Z,100691.19
2018-04-01T14:07:18.393Z,100689.66
2018-04-01T14:09:45.345Z,100706.66
2018-04-01T14:12:13.193Z,100710.43
2018-04-01T14:14:42.205Z,100715.05
2018-04-01T14:17:10.046Z,100720.28
2018-04-01T14:19:37.959Z,100718.94
2018-04-01T14:22:04.963Z,100716.27
2018-04-01T14:24:31.966Z,100717.55
2018-04-01T14:26:58.925Z,100716.19
2018-04-01T14:29:25.857Z,100726.47
2018-04-01T14:31:53.829Z,100711.57
2018-04-01T14:34:20.753Z,100724.16
2018-04-01T14:36:47.702Z,100717.90
2018-04-01T14:39:14.624Z,100720.55
2018-04-01T14:41:41.624Z,100719.91
2018-04-01T14:44:08.569Z,100714.42
2018-04-01T14:46:35.551Z,100725.44
2018-04-01T14:49:02.472Z,100725.90
2018-04-01T14:51:29.394Z,100727.02
2018-04-01T14:53:56.353Z,100726.83
2018-04-01T14:56:24.260Z,100734.64
2018-04-01T14:58:51.215Z,100733.64
2018-04-01T15:01:18.142Z,100725.44
2018-04-01T15:03:45.154Z,100731.87
2018-04-01T15:06:12.100Z,100724.22
2018-04-01T15:08:39.046Z,100729.05
2018-04-01T15:11:07.976Z,100720.38
2018-04-01T15:13:34.924Z,100718.44
2018-04-01T15:16:03.057Z,100725.25
2018-04-01T15:18:31.032Z,100723.08
2018-04-01T15:20:59.965Z,100731.86
2018-04-01T15:23:26.897Z,100731.39
2018-04-01T15:25:53.845Z,100726.32
2018-04-01T15:28:21.610Z,100726.61
2018-04-01T15:30:49.477Z,100727.45
2018-04-01T15:33:16.391Z,100723.77
2018-04-01T15:35:45.333Z,100724.53
2018-04-01T15:38:12.259Z,100728.56
2018-04-01T15:40:39.261Z,100732.94
2018-04-01T15:43:06.182Z,100741.16
2018-04-01T15:45:35.253Z,100756.49
2018-04-01T15:48:02.214Z,100751.83
2018-04-01T15:50:29.331Z,100748.78
2018-04-01T15:52:56.240Z,100768.00
2018-04-01T15:55:23.180Z,100776.30
2018-04-01T15:57:53.759Z,100775.44
2018-04-01T16:00:20.701Z,100781.05
2018-04-01T16:02:48.837Z,100784.38
2018-04-01T16:05:15.785Z,100788.31
2018-04-01T16:07:42.702Z,100797.72
2018-04-01T16:10:11.549Z,100800.67
2018-04-01T16:12:38.509Z,100798.61
2018-04-01T16:15:05.481Z,100802.73
2018-04-01T16:17:35.595Z,100809.59
2018-04-01T16:20:03.497Z,100806.11
2018-04-01T16:22:30.479Z,100814.70
2018-04-01T16:24:57.442Z,100819.92
2018-04-01T16:27:25.375Z,100822.50
2018-04-01T16:29:54.264Z,100824.30
2018-04-01T16:32:22.427Z,100825.33
2018-04-01T16:34:50.357Z,100823.45
2018-04-01T16:37:17.316Z,100833.61
2018-04-01T16:39:44.253Z,100822.94
2018-04-01T16:42:11.226Z,100834.34
2018-04-01T16:44:38.153Z,100830.95
2018-04-01T16:47:05.109Z,100840.52
2018-04-01T16:49:32.045Z,100847.06
2018-04-01T16:51:59.005Z,100844.88
2018-04-01T16:54:25.944Z,100848.86
2018-04-01T16:56:52.928Z,100848.50
2018-04-01T16:59:19.989Z,100851.32
2018-04-01T17:01:46.933Z,100850.77
2018-04-01T17:04:13.849Z,100860.03
2018-04-01T17:06:40.800Z,100853.63
2018-04-01T17:09:07.754Z,100857.09
2018-04-01T17:11:34.672Z,100857.45
2018-04-01T17:14:01.640Z,100862.05
2018-04-01T17:16:31.910Z,100869.77
2018-04-01T17:18:58.888Z,100874.73
2018-04-01T17:21:26.726Z,100874.39
2018-04-01T17:23:53.667Z,100873.97
2018-04-01T17:26:24.065Z,100872.38
2018-04-01T17:28:51.018Z,100877.66
2018-04-01T17:31:17.936Z,100882.44
2018-04-01T17:33:44.885Z,100884.70
2018-04-01T17:36:11.799Z,100882.39
2018-04-01T17:38:39.774Z,100886.81
2018-04-01T17:41:07.686Z,100886.80
2018-04-01T17:43:34.639Z,100892.35
2018-04-01T17:46:01.556Z,100893.06
2018-04-01T17:48:29.478Z,100889.80
2018-04-01T17:50:57.318Z,100893.02
2018-04-01T17:53:25.274Z,100889.29
2018-04-01T17:55:53.149Z,100893.00
2018-04-01T17:58:20.067Z,100890.54
2018-04-01T18:00:47.987Z,100885.48
2018-04-01T18:03:14.937Z,100886.30
2018-04-01T18:05:41.890Z,100881.37
2018-04-01T18:08:09.702Z,100878.40
2018-04-01T18:10:36.662Z,100879.88
2018-04-01T18:13:03.586Z,100886.70
2018-04-01T18:15:31.557Z,100890.75
2018-04-01T18:17:58.487Z,100892.54
2018-04-01T18:20:25.437Z,100901.44
2018-04-01T18:22:52.351Z,100899.35
2018-04-01T18:25:19.917Z,100899.35
2018-04-01T18:27:46.902Z,100887.50
2018-04-01T18:30:13.873Z,100891.72
2018-04-01T18:32:40.794Z,100890.60
2018-04-01T18:35:07.932Z,100889.13
2018-04-01T18:37:34.912Z,100885.41
2018-04-01T18:40:03.837Z,100887.63
2018-04-01T18:42:30.778Z,100893.80
2018-04-01T18:44:57.689Z,100901.91
2018-04-01T18:47:24.634Z,100899.20
2018-04-01T18:49:51.550Z,100904.08
2018-04-01T18:52:18.568Z,100909.98
2018-04-01T18:54:45.523Z,100916.13
2018-04-01T18:57:12.454Z,100914.48
2018-04-01T18:59:39.407Z,100913.23
2018-04-01T19:02:06.350Z,100919.98
2018-04-01T19:04:33.273Z,100921.80
2018-04-01T19:07:00.230Z,100919.02
2018-04-01T19:09:27.140Z,100924.39
2018-04-01T19:11:55.097Z,100922.21
2018-04-01T19:14:22.018Z,100928.58
2018-04-01T19:17:08.267Z,100936.94
2018-04-01T19:19:35.729Z,100937.14
2018-04-01T19:22:03.246Z,100942.98
2018-04-01T19:24:30.724Z,100947.47
2018-04-01T19:27:00.103Z,100946.94
2018-04-01T19:29:28.509Z,100953.84
2018-04-01T19:31:55.997Z,100955.89
2018-04-01T19:34:23.489Z,100959.20
2018-04-01T19:36:50.955Z,100962.30
2018-04-01T19:39:20.482Z,100966.30
2018-04-01T19:41:47.953Z,100967.10
2018-04-01T19:44:15.457Z,100971.96
2018-04-01T19:46:42.917Z,100974.44
2018-04-01T19:49:10.410Z,100969.31
2018-04-01T19:51:37.888Z,100977.31
2018-04-01T19:54:06.101Z,100975.98
2018-04-01T19:56:34.472Z,100978.72
2018-04-01T19:59:01.987Z,100986.39
2018-04-01T20:01:29.510Z,100983.55
2018-04-01T20:03:57.557Z,100983.30
2018-04-01T20:06:26.195Z,100991.38
2018-04-01T20:08:54.746Z,100988.06
2018-04-01T20:11:22.242Z,100991.11
2018-04-01T20:13:49.697Z,100981.52
2018-04-01T20:16:17.214Z,100987.95
2018-04-01T20:18:45.320Z,100982.98
2018-04-01T20:21:12.812Z,100992.59
2018-04-01T20:23:40.264Z,100987.67
2018-04-01T20:26:07.737Z,100994.52
2018-04-01T20:28:35.207Z,100991.47
2018-04-01T20:31:02.693Z,100988.80
2018-04-01T20:33:30.145Z,100994.00
2018-04-01T20:35:57.653Z,100994.03
2018-04-01T20:38:25.113Z,101001.51
2018-04-01T20:40:53.365Z,101004.59
2018-04-01T20:43:20.828Z,101009.00
2018-04-01T20:45:48.313Z,101003.83
2018-04-01T20:48:15.838Z,101015.29
2018-04-01T20:50:43.333Z,101016.19
2018-04-01T20:53:10.789Z,101027.68
2018-04-01T20:55:38.275Z,101026.70
2018-04-01T20:58:05.771Z,101022.59
2018-04-01T21:00:33.240Z,101015.67
2018-04-01T21:03:00.732Z,101021.23
2018-04-01T21:05:28.206Z,101017.20
2018-04-01T21:07:55.698Z,101034.13
2018-04-01T21:10:23.155Z,101026.97
2018-04-01T21:12:50.670Z,101028.38
2018-04-01T21:15:18.206Z,101020.97
2018-04-01T21:17:45.689Z,101026.66
2018-04-01T21:20:13.139Z,101021.30
2018-04-01T21:22:40.616Z,101025.38
2018-04-01T21:25:08.081Z,101023.19
2018-04-01T21:27:35.590Z,101024.67
2018-04-01T21:30:03.045Z,101031.86
2018-04-01T21:32:30.541Z,101028.66
2018-04-01T21:34:58.013Z,101027.63
2018-04-01T21:37:25.496Z,101028.73
2018-04-01T21:39:54.753Z,101034.37
2018-04-01T21:42:22.205Z,101034.06
2018-04-01T21:44:50.698Z,101040.98
2018-04-01T21:47:18.168Z,101040.70
2018-04-01T21:49:45.658Z,101039.76
2018-04-01T21:52:13.114Z,101044.32
2018-04-01T21:54:40.611Z,101038.97
2018-04-01T21:57:08.093Z,101031.49
2018-04-01T21:59:36.702Z,101038.53
2018-04-01T22:02:04.162Z,101033.75
2018-04-01T22:04:31.652Z,101034.03
2018-04-01T22:06:59.113Z,101033.59
2018-04-01T22:09:26.605Z,101040.28
2018-04-01T22:11:54.058Z,101037.05
2018-04-01T22:14:21.544Z,101036.86
2018-04-01T22:16:48.997Z,101040.16
2018-04-01T22:19:16.482Z,101037.81
2018-04-01T22:21:43.928Z,101040.27
2018-04-01T22:24:11.453Z,101044.91
2018-04-01T22:26:40.950Z,101043.41
2018-04-01T22:29:09.344Z,101046.61
2018-04-01T22:31:36.833Z,101043.44
2018-04-01T22:34:04.291Z,101044.03
2018-04-01T22:36:32.746Z,101046.06
2018-04-01T22:39:00.201Z,101044.13
2018-04-01T22:41:27.686Z,101043.99
2018-04-01T22:43:55.139Z,101054.20
2018-04-01T22:46:22.621Z,101053.31
2018-04-01T22:48:51.037Z,101048.31
2018-04-01T22:51:18.530Z,101056.73
2018-04-01T22:53:45.993Z,101057.80
2018-04-01T22:56:13.472Z,101062.34
2018-04-01T22:58:40.936Z,101059.68
2018-04-01T23:01:08.417Z,101066.16
2018-04-01T23:03:35.874Z,101067.96
2018-04-01T23:06:03.396Z,101067.33
2018-04-01T23:08:30.854Z,101063.46
2018-04-01T23:10:58.336Z,101072.06
2018-04-01T23:13:25.796Z,101067.67
2018-04-01T23:15:53.305Z,101066.69
2018-04-01T23:18:20.766Z,101064.17
2018-04-01T23:20:48.262Z,101064.55
2018-04-01T23:23:16.622Z,101066.69
2018-04-01T23:25:44.134Z,101073.78
2018-04-01T23:28:11.580Z,101076.58
2018-04-01T23:30:39.077Z,101075.20
2018-04-01T23:33:06.521Z,101074.14
2018-04-01T23:35:34.020Z,101071.39
2018-04-01T23:38:01.486Z,101079.68
2018-04-01T23:40:28.941Z,101067.23
2018-04-01T23:42:56.429Z,101083.09
2018-04-01T23:45:23.897Z,101078.61
2018-04-01T23:47:51.403Z,101080.61
2018-04-01T23:50:18.875Z,101083.84
2018-04-01T23:52:46.362Z,101089.41
2018-04-01T23:55:14.793Z,101087.90
2018-04-01T23:57:42.269Z,101087.09
